Copmanthorpe, United Kingdom
Current Conditions -  °F | °C
As of 8:16 AM on Friday 28 Nov 2014 (Local Time) from EGXU Reporting Station
Drizzle Drizzle  
Wind Chill: 50°   Ceiling: 800
Heat Index: 50°   Visibility: 1.3mi
Dew Point: 48°   Wind: 6mph
Humidity: 94%   Direction: 60°ENE
Pressure: 29.71"   Gusts: NA
Location:  53.91°N, 1.14°W
Report Text: EGXU 280816Z 06005KT 2200 DZ BKN008 OVC020 10/09 Q1006 YLO2 TEMPO SCT006 YLO2
Loading
Personal Weather Stations






























Interactive Weather Map New forecast layout! Learn more

10-Day Weather Forecast

Advertisements
Track Severe Weather on mobile